This is the latest recevied weather packets stored in our database for station/object F5IOR-13. If no packets are shown the sender has not sent any weather packets the latest 10 day(s).
| Time | Temp. | Humidity | Pressure | Rain* | Wind** | Luminosity | Snow |
|---|---|---|---|---|---|---|---|
| 1777886663 | 13.89° C | 73% | 985.4 hPa | 9.65 mm | - | - | - |
| 1777885703 | 13.89° C | 74% | 985.4 hPa | 9.65 mm | - | - | - |
| 1777884743 | 13.89° C | 74% | 985.3 hPa | 9.65 mm | - | - | - |
| 1777883783 | 13.89° C | 74% | 985.3 hPa | 9.65 mm | - | - | - |
| 1777883303 | 12.78° C | 78% | 985.2 hPa | 11.68 mm | - | - | - |
| 1777882823 | 12.78° C | 78% | 985.2 hPa | 11.68 mm | - | - | - |
| 1777882343 | 12.78° C | 78% | 985.2 hPa | 11.68 mm | - | - | - |
| 1777881863 | 12.78° C | 80% | 985.2 hPa | 11.68 mm | - | - | - |
| 1777881623 | 12.78° C | 80% | 985.2 hPa | 11.68 mm | - | - | - |
| 1777881383 | 12.78° C | 83% | 985.1 hPa | 11.68 mm | - | - | - |
| 1777881143 | 12.78° C | 83% | 985.1 hPa | 11.68 mm | - | - | - |
| 1777880903 | 12.78° C | 83% | 985.1 hPa | 11.68 mm | - | - | - |
| 1777880663 | 12.78° C | 83% | 985.1 hPa | 11.68 mm | - | - | - |
| 1777880543 | 12.78° C | 83% | 985.1 hPa | 11.68 mm | - | - | - |
| 1777880423 | 12.78° C | 83% | 985.1 hPa | 11.68 mm | - | - | - |
| 1777880303 | 12.78° C | 83% | 985.1 hPa | 11.68 mm | - | - | - |
| 1777880243 | 12.78° C | 83% | 985.1 hPa | 11.68 mm | - | - | - |
| 1777880183 | 12.78° C | 83% | 985.1 hPa | 11.68 mm | - | - | - |
| 1777880123 | 12.78° C | 83% | 985.1 hPa | 11.68 mm | - | - | - |
| 1777838907 | 15° C | 58% | 985.1 hPa | 3.56 mm | - | - | - |
| 1777837107 | 16.11° C | 55% | 984.6 hPa | 3.56 mm | - | - | - |
| 1777835307 | 16.67° C | 54% | 984.3 hPa | 3.56 mm | - | - | - |
| 1777833507 | 17.22° C | 53% | 984.2 hPa | 3.56 mm | - | - | - |
| 1777831707 | 17.78° C | 53% | 984.1 hPa | 3.56 mm | - | - | - |
| 1777829907 | 18.33° C | 53% | 984 hPa | 3.56 mm | - | - | - |
* Rain latest hour (hover to see other rain measurements)
** Current wind speed in m/s (hover to see current wind gust speed)